Hope, Rhode Island
Current Conditions -  °F | °C
As of 12:51 PM on Friday 28 Nov 2014 (Local Time) from KPVD Reporting Station
Broken Clouds Broken Clouds  
Wind Chill: 27°   Ceiling: 3700
Heat Index: 36°   Visibility: 10mi
Dew Point: 21°   Wind: 15mph
Humidity: 55%   Direction: 320°NW
Pressure: 30.06"   Gusts: 22mph
Location:  41.73°N, 71.56°W
Report Text: KPVD 281751Z 32013G19KT 10SM BKN037 BKN075 02/M06 A3006 RMK AO2 SLP181 60000 T00221061 10028 21006 58003
Loading
Personal Weather Stations






























Interactive Weather Map New forecast layout! Learn more

10-Day Weather Forecast

Advertisements
Track Severe Weather on mobile